sensor_id;sensor_type;location;lat;lon;timestamp;P1;durP1;ratioP1;P2;durP2;ratioP2
82000;SDS011;71510;50.558;7.258;2023-12-29T00:00:45;1.42;;;1.00;;
82000;SDS011;71510;50.558;7.258;2023-12-29T00:03:12;2.37;;;1.50;;
82000;SDS011;71510;50.558;7.258;2023-12-29T00:05:39;2.00;;;1.12;;
82000;SDS011;71510;50.558;7.258;2023-12-29T00:08:07;1.05;;;0.88;;
82000;SDS011;71510;50.558;7.258;2023-12-29T00:10:34;4.62;;;1.00;;
82000;SDS011;71510;50.558;7.258;2023-12-29T00:13:01;3.30;;;0.93;;
82000;SDS011;71510;50.558;7.258;2023-12-29T00:15:29;1.15;;;0.80;;
82000;SDS011;71510;50.558;7.258;2023-12-29T00:17:56;3.85;;;0.82;;
82000;SDS011;71510;50.558;7.258;2023-12-29T00:20:23;2.35;;;1.10;;
82000;SDS011;71510;50.558;7.258;2023-12-29T00:22:50;1.60;;;1.17;;
82000;SDS011;71510;50.558;7.258;2023-12-29T00:25:18;3.02;;;1.25;;
82000;SDS011;71510;50.558;7.258;2023-12-29T00:27:45;2.05;;;1.12;;
82000;SDS011;71510;50.558;7.258;2023-12-29T00:30:12;1.67;;;1.00;;
82000;SDS011;71510;50.558;7.258;2023-12-29T00:32:40;2.22;;;1.35;;
82000;SDS011;71510;50.558;7.258;2023-12-29T00:35:07;4.37;;;1.65;;
82000;SDS011;71510;50.558;7.258;2023-12-29T00:37:35;1.85;;;1.00;;
82000;SDS011;71510;50.558;7.258;2023-12-29T00:40:02;4.62;;;1.40;;
82000;SDS011;71510;50.558;7.258;2023-12-29T00:42:31;2.55;;;1.30;;
82000;SDS011;71510;50.558;7.258;2023-12-29T00:44:58;3.35;;;1.57;;
82000;SDS011;71510;50.558;7.258;2023-12-29T00:47:26;5.33;;;1.70;;
82000;SDS011;71510;50.558;7.258;2023-12-29T00:49:53;3.55;;;1.17;;
82000;SDS011;71510;50.558;7.258;2023-12-29T00:52:20;5.00;;;1.75;;
82000;SDS011;71510;50.558;7.258;2023-12-29T00:54:48;4.12;;;1.65;;
82000;SDS011;71510;50.558;7.258;2023-12-29T00:57:15;5.70;;;1.90;;
82000;SDS011;71510;50.558;7.258;2023-12-29T00:59:42;2.72;;;1.75;;
82000;SDS011;71510;50.558;7.258;2023-12-29T01:02:10;4.72;;;1.52;;
82000;SDS011;71510;50.558;7.258;2023-12-29T01:04:37;4.05;;;1.90;;
82000;SDS011;71510;50.558;7.258;2023-12-29T01:07:05;3.10;;;1.85;;
82000;SDS011;71510;50.558;7.258;2023-12-29T01:09:36;2.60;;;1.30;;
82000;SDS011;71510;50.558;7.258;2023-12-29T01:12:03;4.72;;;1.70;;
82000;SDS011;71510;50.558;7.258;2023-12-29T01:14:31;3.50;;;1.47;;
82000;SDS011;71510;50.558;7.258;2023-12-29T01:16:58;4.67;;;1.57;;
82000;SDS011;71510;50.558;7.258;2023-12-29T01:19:25;6.12;;;1.95;;
82000;SDS011;71510;50.558;7.258;2023-12-29T01:21:53;3.27;;;1.40;;
82000;SDS011;71510;50.558;7.258;2023-12-29T01:24:20;3.50;;;1.57;;
82000;SDS011;71510;50.558;7.258;2023-12-29T01:26:47;5.83;;;1.70;;
82000;SDS011;71510;50.558;7.258;2023-12-29T01:29:14;2.45;;;1.50;;
82000;SDS011;71510;50.558;7.258;2023-12-29T01:31:42;6.92;;;1.70;;
82000;SDS011;71510;50.558;7.258;2023-12-29T01:34:09;5.25;;;1.47;;
82000;SDS011;71510;50.558;7.258;2023-12-29T01:36:36;3.62;;;1.32;;
82000;SDS011;71510;50.558;7.258;2023-12-29T01:39:04;6.42;;;1.57;;
82000;SDS011;71510;50.558;7.258;2023-12-29T01:41:31;6.72;;;1.98;;
82000;SDS011;71510;50.558;7.258;2023-12-29T01:46:31;4.95;;;1.55;;
82000;SDS011;71510;50.558;7.258;2023-12-29T01:48:59;4.78;;;1.85;;
82000;SDS011;71510;50.558;7.258;2023-12-29T01:51:26;5.10;;;1.70;;
82000;SDS011;71510;50.558;7.258;2023-12-29T01:53:54;2.72;;;1.40;;
82000;SDS011;71510;50.558;7.258;2023-12-29T01:56:22;6.05;;;1.40;;
82000;SDS011;71510;50.558;7.258;2023-12-29T01:58:50;5.37;;;1.57;;
82000;SDS011;71510;50.558;7.258;2023-12-29T02:01:18;4.95;;;1.52;;
82000;SDS011;71510;50.558;7.258;2023-12-29T02:03:45;5.22;;;1.87;;
82000;SDS011;71510;50.558;7.258;2023-12-29T02:06:13;5.75;;;1.90;;
82000;SDS011;71510;50.558;7.258;2023-12-29T02:08:40;6.30;;;1.72;;
82000;SDS011;71510;50.558;7.258;2023-12-29T02:11:08;5.65;;;1.40;;
82000;SDS011;71510;50.558;7.258;2023-12-29T02:13:35;4.00;;;1.60;;
82000;SDS011;71510;50.558;7.258;2023-12-29T02:16:06;8.48;;;1.75;;
82000;SDS011;71510;50.558;7.258;2023-12-29T02:18:32;5.58;;;1.72;;
82000;SDS011;71510;50.558;7.258;2023-12-29T02:21:00;5.72;;;1.87;;
82000;SDS011;71510;50.558;7.258;2023-12-29T02:23:29;6.08;;;1.30;;
82000;SDS011;71510;50.558;7.258;2023-12-29T02:25:58;5.45;;;1.50;;
82000;SDS011;71510;50.558;7.258;2023-12-29T02:28:26;6.45;;;1.27;;
82000;SDS011;71510;50.558;7.258;2023-12-29T02:33:40;2.70;;;1.50;;
82000;SDS011;71510;50.558;7.258;2023-12-29T02:36:07;6.70;;;1.87;;
82000;SDS011;71510;50.558;7.258;2023-12-29T02:38:35;8.58;;;1.60;;
82000;SDS011;71510;50.558;7.258;2023-12-29T02:41:03;8.33;;;1.55;;
82000;SDS011;71510;50.558;7.258;2023-12-29T02:43:33;7.35;;;1.62;;
82000;SDS011;71510;50.558;7.258;2023-12-29T02:46:00;4.55;;;1.75;;
82000;SDS011;71510;50.558;7.258;2023-12-29T02:48:28;6.10;;;1.30;;
82000;SDS011;71510;50.558;7.258;2023-12-29T02:50:55;6.25;;;1.50;;
82000;SDS011;71510;50.558;7.258;2023-12-29T02:53:22;5.75;;;1.40;;
82000;SDS011;71510;50.558;7.258;2023-12-29T02:55:50;5.80;;;1.22;;
82000;SDS011;71510;50.558;7.258;2023-12-29T02:58:17;5.58;;;1.70;;
82000;SDS011;71510;50.558;7.258;2023-12-29T03:00:44;6.87;;;1.35;;
82000;SDS011;71510;50.558;7.258;2023-12-29T03:03:12;5.30;;;1.12;;
82000;SDS011;71510;50.558;7.258;2023-12-29T03:05:39;4.20;;;1.72;;
82000;SDS011;71510;50.558;7.258;2023-12-29T03:08:06;6.15;;;1.85;;
82000;SDS011;71510;50.558;7.258;2023-12-29T03:10:33;12.25;;;2.70;;
82000;SDS011;71510;50.558;7.258;2023-12-29T03:13:01;6.58;;;2.05;;
82000;SDS011;71510;50.558;7.258;2023-12-29T03:15:30;4.62;;;1.50;;
82000;SDS011;71510;50.558;7.258;2023-12-29T03:17:57;5.95;;;1.77;;
82000;SDS011;71510;50.558;7.258;2023-12-29T03:20:24;6.42;;;1.50;;
82000;SDS011;71510;50.558;7.258;2023-12-29T03:22:52;4.47;;;1.77;;
82000;SDS011;71510;50.558;7.258;2023-12-29T03:25:19;4.45;;;1.72;;
82000;SDS011;71510;50.558;7.258;2023-12-29T03:27:46;7.53;;;1.85;;
82000;SDS011;71510;50.558;7.258;2023-12-29T03:30:14;5.72;;;1.30;;
82000;SDS011;71510;50.558;7.258;2023-12-29T03:32:41;6.22;;;1.80;;
82000;SDS011;71510;50.558;7.258;2023-12-29T03:35:08;9.20;;;1.05;;
82000;SDS011;71510;50.558;7.258;2023-12-29T03:37:35;4.35;;;1.67;;
82000;SDS011;71510;50.558;7.258;2023-12-29T03:40:03;7.08;;;1.37;;
82000;SDS011;71510;50.558;7.258;2023-12-29T03:42:30;6.30;;;1.35;;
82000;SDS011;71510;50.558;7.258;2023-12-29T03:44:58;6.65;;;1.22;;
82000;SDS011;71510;50.558;7.258;2023-12-29T03:47:25;10.82;;;2.08;;
82000;SDS011;71510;50.558;7.258;2023-12-29T03:49:52;4.25;;;1.35;;
82000;SDS011;71510;50.558;7.258;2023-12-29T03:52:20;10.85;;;1.90;;
82000;SDS011;71510;50.558;7.258;2023-12-29T03:54:47;7.95;;;1.52;;
82000;SDS011;71510;50.558;7.258;2023-12-29T03:57:14;6.62;;;1.32;;
82000;SDS011;71510;50.558;7.258;2023-12-29T03:59:41;5.95;;;1.32;;
82000;SDS011;71510;50.558;7.258;2023-12-29T04:02:09;2.17;;;0.80;;
82000;SDS011;71510;50.558;7.258;2023-12-29T04:04:37;10.40;;;1.70;;
82000;SDS011;71510;50.558;7.258;2023-12-29T04:07:04;7.35;;;1.57;;
82000;SDS011;71510;50.558;7.258;2023-12-29T04:09:32;8.80;;;1.52;;
82000;SDS011;71510;50.558;7.258;2023-12-29T04:11:59;5.85;;;1.67;;
82000;SDS011;71510;50.558;7.258;2023-12-29T04:14:26;5.10;;;1.10;;
82000;SDS011;71510;50.558;7.258;2023-12-29T04:16:54;5.12;;;1.55;;
82000;SDS011;71510;50.558;7.258;2023-12-29T04:19:21;5.22;;;1.05;;
82000;SDS011;71510;50.558;7.258;2023-12-29T04:21:48;6.28;;;1.32;;
82000;SDS011;71510;50.558;7.258;2023-12-29T04:24:15;7.15;;;1.90;;
82000;SDS011;71510;50.558;7.258;2023-12-29T04:26:43;6.58;;;1.20;;
82000;SDS011;71510;50.558;7.258;2023-12-29T04:29:10;3.33;;;1.10;;
82000;SDS011;71510;50.558;7.258;2023-12-29T04:31:37;6.22;;;1.30;;
82000;SDS011;71510;50.558;7.258;2023-12-29T04:34:05;4.50;;;1.07;;
82000;SDS011;71510;50.558;7.258;2023-12-29T04:36:32;5.42;;;1.15;;
82000;SDS011;71510;50.558;7.258;2023-12-29T04:38:59;7.25;;;1.40;;
82000;SDS011;71510;50.558;7.258;2023-12-29T04:41:26;4.92;;;1.52;;
82000;SDS011;71510;50.558;7.258;2023-12-29T04:43:54;4.20;;;1.10;;
82000;SDS011;71510;50.558;7.258;2023-12-29T04:46:21;4.87;;;1.75;;
82000;SDS011;71510;50.558;7.258;2023-12-29T04:48:48;6.00;;;1.45;;
82000;SDS011;71510;50.558;7.258;2023-12-29T04:51:16;5.92;;;1.62;;
82000;SDS011;71510;50.558;7.258;2023-12-29T04:53:43;4.97;;;1.30;;
82000;SDS011;71510;50.558;7.258;2023-12-29T04:56:10;7.47;;;1.80;;
82000;SDS011;71510;50.558;7.258;2023-12-29T04:58:38;4.85;;;1.37;;
82000;SDS011;71510;50.558;7.258;2023-12-29T05:01:05;7.40;;;1.95;;
82000;SDS011;71510;50.558;7.258;2023-12-29T05:03:34;8.25;;;2.25;;
82000;SDS011;71510;50.558;7.258;2023-12-29T05:06:01;5.65;;;1.65;;
82000;SDS011;71510;50.558;7.258;2023-12-29T05:08:28;8.78;;;1.42;;
82000;SDS011;71510;50.558;7.258;2023-12-29T05:10:56;5.75;;;2.30;;
82000;SDS011;71510;50.558;7.258;2023-12-29T05:13:23;7.90;;;1.62;;
82000;SDS011;71510;50.558;7.258;2023-12-29T05:15:50;4.12;;;1.30;;
82000;SDS011;71510;50.558;7.258;2023-12-29T05:18:18;5.15;;;1.40;;
82000;SDS011;71510;50.558;7.258;2023-12-29T05:20:45;5.92;;;1.27;;
82000;SDS011;71510;50.558;7.258;2023-12-29T05:23:12;3.85;;;1.20;;
82000;SDS011;71510;50.558;7.258;2023-12-29T05:25:40;4.25;;;1.50;;
82000;SDS011;71510;50.558;7.258;2023-12-29T05:28:07;5.78;;;1.40;;
82000;SDS011;71510;50.558;7.258;2023-12-29T05:30:34;3.87;;;1.30;;
82000;SDS011;71510;50.558;7.258;2023-12-29T05:33:02;4.60;;;1.22;;
82000;SDS011;71510;50.558;7.258;2023-12-29T05:35:29;5.60;;;1.00;;
82000;SDS011;71510;50.558;7.258;2023-12-29T05:37:56;7.35;;;1.45;;
82000;SDS011;71510;50.558;7.258;2023-12-29T05:40:24;6.65;;;2.08;;
82000;SDS011;71510;50.558;7.258;2023-12-29T05:42:51;6.40;;;1.12;;
82000;SDS011;71510;50.558;7.258;2023-12-29T05:45:18;5.83;;;1.40;;
82000;SDS011;71510;50.558;7.258;2023-12-29T05:47:45;4.50;;;1.10;;
82000;SDS011;71510;50.558;7.258;2023-12-29T05:50:13;4.75;;;0.93;;
82000;SDS011;71510;50.558;7.258;2023-12-29T05:52:40;4.95;;;1.05;;
82000;SDS011;71510;50.558;7.258;2023-12-29T05:55:07;3.02;;;0.80;;
82000;SDS011;71510;50.558;7.258;2023-12-29T05:57:35;4.20;;;1.17;;
82000;SDS011;71510;50.558;7.258;2023-12-29T06:00:02;5.22;;;1.07;;
82000;SDS011;71510;50.558;7.258;2023-12-29T06:02:30;5.17;;;1.20;;
82000;SDS011;71510;50.558;7.258;2023-12-29T06:04:57;4.30;;;1.07;;
82000;SDS011;71510;50.558;7.258;2023-12-29T06:07:24;1.98;;;0.70;;
82000;SDS011;71510;50.558;7.258;2023-12-29T06:09:52;2.85;;;1.00;;
82000;SDS011;71510;50.558;7.258;2023-12-29T06:12:19;2.98;;;0.72;;
82000;SDS011;71510;50.558;7.258;2023-12-29T06:14:46;6.25;;;1.50;;
82000;SDS011;71510;50.558;7.258;2023-12-29T06:17:14;9.28;;;1.62;;
82000;SDS011;71510;50.558;7.258;2023-12-29T06:19:42;6.87;;;1.10;;
82000;SDS011;71510;50.558;7.258;2023-12-29T06:22:09;3.30;;;0.80;;
82000;SDS011;71510;50.558;7.258;2023-12-29T06:24:37;4.85;;;1.20;;
82000;SDS011;71510;50.558;7.258;2023-12-29T06:27:05;3.25;;;0.78;;
82000;SDS011;71510;50.558;7.258;2023-12-29T06:29:32;4.53;;;1.02;;
82000;SDS011;71510;50.558;7.258;2023-12-29T06:31:59;4.20;;;1.17;;
82000;SDS011;71510;50.558;7.258;2023-12-29T06:34:26;1.92;;;0.70;;
82000;SDS011;71510;50.558;7.258;2023-12-29T06:36:54;3.05;;;0.88;;
82000;SDS011;71510;50.558;7.258;2023-12-29T06:39:21;6.75;;;1.22;;
82000;SDS011;71510;50.558;7.258;2023-12-29T06:41:49;4.72;;;0.70;;
82000;SDS011;71510;50.558;7.258;2023-12-29T06:44:16;3.17;;;0.80;;
82000;SDS011;71510;50.558;7.258;2023-12-29T06:46:43;1.98;;;0.88;;
82000;SDS011;71510;50.558;7.258;2023-12-29T06:49:11;2.67;;;1.27;;
82000;SDS011;71510;50.558;7.258;2023-12-29T06:51:38;4.67;;;1.10;;
82000;SDS011;71510;50.558;7.258;2023-12-29T06:54:07;5.50;;;0.98;;
82000;SDS011;71510;50.558;7.258;2023-12-29T06:56:34;1.95;;;0.80;;
82000;SDS011;71510;50.558;7.258;2023-12-29T06:59:01;5.58;;;1.25;;
82000;SDS011;71510;50.558;7.258;2023-12-29T07:01:29;3.87;;;0.70;;
82000;SDS011;71510;50.558;7.258;2023-12-29T07:03:56;3.67;;;1.10;;
82000;SDS011;71510;50.558;7.258;2023-12-29T07:06:23;3.30;;;0.72;;
82000;SDS011;71510;50.558;7.258;2023-12-29T07:08:51;3.27;;;0.72;;
82000;SDS011;71510;50.558;7.258;2023-12-29T07:11:18;2.95;;;0.80;;
82000;SDS011;71510;50.558;7.258;2023-12-29T07:13:45;3.10;;;0.62;;
82000;SDS011;71510;50.558;7.258;2023-12-29T07:16:12;1.75;;;0.60;;
82000;SDS011;71510;50.558;7.258;2023-12-29T07:18:40;5.28;;;1.27;;
82000;SDS011;71510;50.558;7.258;2023-12-29T07:21:08;5.15;;;1.07;;
82000;SDS011;71510;50.558;7.258;2023-12-29T07:23:38;9.50;;;2.45;;
82000;SDS011;71510;50.558;7.258;2023-12-29T07:26:06;2.25;;;1.30;;
82000;SDS011;71510;50.558;7.258;2023-12-29T07:28:33;2.00;;;0.80;;
82000;SDS011;71510;50.558;7.258;2023-12-29T07:31:00;3.30;;;1.12;;
82000;SDS011;71510;50.558;7.258;2023-12-29T07:33:28;6.55;;;1.25;;
82000;SDS011;71510;50.558;7.258;2023-12-29T07:35:55;3.52;;;1.00;;
82000;SDS011;71510;50.558;7.258;2023-12-29T07:38:23;7.05;;;1.50;;
82000;SDS011;71510;50.558;7.258;2023-12-29T07:40:51;6.95;;;1.32;;
82000;SDS011;71510;50.558;7.258;2023-12-29T07:43:18;2.77;;;0.95;;
82000;SDS011;71510;50.558;7.258;2023-12-29T07:45:45;6.70;;;1.80;;
82000;SDS011;71510;50.558;7.258;2023-12-29T07:48:12;5.58;;;1.25;;
82000;SDS011;71510;50.558;7.258;2023-12-29T07:50:40;6.58;;;1.17;;
82000;SDS011;71510;50.558;7.258;2023-12-29T07:53:07;4.67;;;1.12;;
82000;SDS011;71510;50.558;7.258;2023-12-29T07:55:37;4.22;;;1.40;;
82000;SDS011;71510;50.558;7.258;2023-12-29T07:58:03;3.33;;;0.88;;
82000;SDS011;71510;50.558;7.258;2023-12-29T08:00:31;4.92;;;0.90;;
82000;SDS011;71510;50.558;7.258;2023-12-29T08:02:58;3.98;;;1.40;;
82000;SDS011;71510;50.558;7.258;2023-12-29T08:05:25;5.78;;;1.37;;
82000;SDS011;71510;50.558;7.258;2023-12-29T08:07:52;4.25;;;0.98;;
82000;SDS011;71510;50.558;7.258;2023-12-29T08:10:21;3.58;;;1.30;;
82000;SDS011;71510;50.558;7.258;2023-12-29T08:12:48;6.17;;;1.17;;
82000;SDS011;71510;50.558;7.258;2023-12-29T08:15:15;5.30;;;1.12;;
82000;SDS011;71510;50.558;7.258;2023-12-29T08:17:43;4.33;;;1.20;;
82000;SDS011;71510;50.558;7.258;2023-12-29T08:20:10;3.25;;;0.90;;
82000;SDS011;71510;50.558;7.258;2023-12-29T08:22:38;2.25;;;0.95;;
82000;SDS011;71510;50.558;7.258;2023-12-29T08:25:05;3.52;;;1.30;;
82000;SDS011;71510;50.558;7.258;2023-12-29T08:27:33;5.12;;;1.42;;
82000;SDS011;71510;50.558;7.258;2023-12-29T08:30:00;3.77;;;0.80;;
82000;SDS011;71510;50.558;7.258;2023-12-29T08:32:28;4.00;;;0.70;;
82000;SDS011;71510;50.558;7.258;2023-12-29T08:34:55;4.60;;;0.95;;
82000;SDS011;71510;50.558;7.258;2023-12-29T08:37:22;5.12;;;1.27;;
82000;SDS011;71510;50.558;7.258;2023-12-29T08:39:50;3.87;;;1.40;;
82000;SDS011;71510;50.558;7.258;2023-12-29T08:42:17;1.92;;;0.80;;
82000;SDS011;71510;50.558;7.258;2023-12-29T08:44:44;4.05;;;1.00;;
82000;SDS011;71510;50.558;7.258;2023-12-29T08:47:12;4.75;;;1.10;;
82000;SDS011;71510;50.558;7.258;2023-12-29T08:49:39;2.83;;;0.95;;
82000;SDS011;71510;50.558;7.258;2023-12-29T08:52:08;2.67;;;0.82;;
82000;SDS011;71510;50.558;7.258;2023-12-29T08:54:36;4.28;;;0.85;;
82000;SDS011;71510;50.558;7.258;2023-12-29T08:57:03;5.28;;;1.45;;
82000;SDS011;71510;50.558;7.258;2023-12-29T08:59:33;2.35;;;1.07;;
82000;SDS011;71510;50.558;7.258;2023-12-29T09:02:00;5.80;;;1.17;;
82000;SDS011;71510;50.558;7.258;2023-12-29T09:04:27;3.08;;;0.78;;
82000;SDS011;71510;50.558;7.258;2023-12-29T09:06:55;4.22;;;0.80;;
82000;SDS011;71510;50.558;7.258;2023-12-29T09:09:22;3.20;;;0.55;;
82000;SDS011;71510;50.558;7.258;2023-12-29T09:11:49;2.70;;;0.68;;
82000;SDS011;71510;50.558;7.258;2023-12-29T09:14:17;3.50;;;0.80;;
82000;SDS011;71510;50.558;7.258;2023-12-29T09:16:44;2.22;;;0.70;;
82000;SDS011;71510;50.558;7.258;2023-12-29T09:19:12;4.50;;;0.78;;
82000;SDS011;71510;50.558;7.258;2023-12-29T09:21:40;2.25;;;0.60;;
82000;SDS011;71510;50.558;7.258;2023-12-29T09:24:07;1.50;;;0.72;;
82000;SDS011;71510;50.558;7.258;2023-12-29T09:26:34;2.60;;;0.50;;
82000;SDS011;71510;50.558;7.258;2023-12-29T09:29:01;4.03;;;0.80;;
82000;SDS011;71510;50.558;7.258;2023-12-29T09:31:29;2.95;;;0.57;;
82000;SDS011;71510;50.558;7.258;2023-12-29T09:33:56;3.20;;;0.50;;
82000;SDS011;71510;50.558;7.258;2023-12-29T09:36:23;5.08;;;0.90;;
82000;SDS011;71510;50.558;7.258;2023-12-29T09:38:51;1.30;;;0.45;;
82000;SDS011;71510;50.558;7.258;2023-12-29T09:41:18;1.22;;;0.42;;
82000;SDS011;71510;50.558;7.258;2023-12-29T09:43:49;1.55;;;0.47;;
82000;SDS011;71510;50.558;7.258;2023-12-29T09:46:17;2.33;;;0.60;;
82000;SDS011;71510;50.558;7.258;2023-12-29T09:48:47;5.10;;;0.60;;
82000;SDS011;71510;50.558;7.258;2023-12-29T09:51:14;1.02;;;0.50;;
82000;SDS011;71510;50.558;7.258;2023-12-29T09:53:42;1.42;;;0.68;;
82000;SDS011;71510;50.558;7.258;2023-12-29T09:56:10;1.85;;;0.53;;
82000;SDS011;71510;50.558;7.258;2023-12-29T09:58:37;1.62;;;0.35;;
82000;SDS011;71510;50.558;7.258;2023-12-29T10:01:04;1.05;;;0.37;;
82000;SDS011;71510;50.558;7.258;2023-12-29T10:03:33;1.90;;;0.50;;
82000;SDS011;71510;50.558;7.258;2023-12-29T10:06:00;2.47;;;0.62;;
82000;SDS011;71510;50.558;7.258;2023-12-29T10:08:29;1.27;;;0.40;;
82000;SDS011;71510;50.558;7.258;2023-12-29T10:10:57;1.00;;;0.40;;
82000;SDS011;71510;50.558;7.258;2023-12-29T10:13:25;1.35;;;0.40;;
82000;SDS011;71510;50.558;7.258;2023-12-29T10:15:56;2.90;;;0.50;;
82000;SDS011;71510;50.558;7.258;2023-12-29T10:21:12;3.22;;;0.30;;
82000;SDS011;71510;50.558;7.258;2023-12-29T10:23:46;1.95;;;0.37;;
82000;SDS011;71510;50.558;7.258;2023-12-29T10:26:12;2.85;;;0.40;;
82000;SDS011;71510;50.558;7.258;2023-12-29T10:28:39;0.93;;;0.30;;
82000;SDS011;71510;50.558;7.258;2023-12-29T10:31:07;1.95;;;0.45;;
82000;SDS011;71510;50.558;7.258;2023-12-29T10:33:36;1.52;;;0.35;;
82000;SDS011;71510;50.558;7.258;2023-12-29T10:36:03;0.50;;;0.42;;
82000;SDS011;71510;50.558;7.258;2023-12-29T10:38:33;0.40;;;0.40;;
82000;SDS011;71510;50.558;7.258;2023-12-29T10:41:33;0.40;;;0.30;;
82000;SDS011;71510;50.558;7.258;2023-12-29T10:43:35;1.95;;;0.30;;
82000;SDS011;71510;50.558;7.258;2023-12-29T10:46:05;2.00;;;0.20;;
82000;SDS011;71510;50.558;7.258;2023-12-29T10:48:34;0.35;;;0.30;;
82000;SDS011;71510;50.558;7.258;2023-12-29T10:51:02;0.30;;;0.23;;
82000;SDS011;71510;50.558;7.258;2023-12-29T10:53:36;0.50;;;0.20;;
82000;SDS011;71510;50.558;7.258;2023-12-29T10:55:59;0.57;;;0.30;;
82000;SDS011;71510;50.558;7.258;2023-12-29T10:58:27;2.42;;;0.40;;
82000;SDS011;71510;50.558;7.258;2023-12-29T11:00:55;1.62;;;0.30;;
82000;SDS011;71510;50.558;7.258;2023-12-29T11:03:23;1.17;;;0.30;;
82000;SDS011;71510;50.558;7.258;2023-12-29T11:05:51;1.27;;;0.28;;
82000;SDS011;71510;50.558;7.258;2023-12-29T11:08:20;1.02;;;0.30;;
82000;SDS011;71510;50.558;7.258;2023-12-29T11:10:48;0.70;;;0.20;;
82000;SDS011;71510;50.558;7.258;2023-12-29T11:13:15;1.60;;;0.45;;
82000;SDS011;71510;50.558;7.258;2023-12-29T11:15:44;2.95;;;0.50;;
82000;SDS011;71510;50.558;7.258;2023-12-29T11:18:19;1.40;;;0.30;;
82000;SDS011;71510;50.558;7.258;2023-12-29T11:20:44;0.70;;;0.20;;
82000;SDS011;71510;50.558;7.258;2023-12-29T11:23:12;1.12;;;0.20;;
82000;SDS011;71510;50.558;7.258;2023-12-29T11:25:46;0.40;;;0.30;;
82000;SDS011;71510;50.558;7.258;2023-12-29T11:28:14;1.57;;;0.47;;
82000;SDS011;71510;50.558;7.258;2023-12-29T11:30:42;1.80;;;0.30;;
82000;SDS011;71510;50.558;7.258;2023-12-29T11:33:18;1.17;;;0.35;;
82000;SDS011;71510;50.558;7.258;2023-12-29T11:35:43;0.25;;;0.17;;
82000;SDS011;71510;50.558;7.258;2023-12-29T11:38:17;0.55;;;0.30;;
82000;SDS011;71510;50.558;7.258;2023-12-29T11:43:14;0.45;;;0.30;;
82000;SDS011;71510;50.558;7.258;2023-12-29T11:45:43;0.28;;;0.20;;
82000;SDS011;71510;50.558;7.258;2023-12-29T11:48:11;0.20;;;0.20;;
82000;SDS011;71510;50.558;7.258;2023-12-29T11:50:39;1.60;;;0.30;;
82000;SDS011;71510;50.558;7.258;2023-12-29T11:53:07;0.30;;;0.20;;
82000;SDS011;71510;50.558;7.258;2023-12-29T11:55:38;0.55;;;0.30;;
82000;SDS011;71510;50.558;7.258;2023-12-29T12:00:51;0.72;;;0.30;;
82000;SDS011;71510;50.558;7.258;2023-12-29T12:03:23;0.42;;;0.20;;
82000;SDS011;71510;50.558;7.258;2023-12-29T12:05:48;0.50;;;0.20;;
82000;SDS011;71510;50.558;7.258;2023-12-29T12:08:31;0.35;;;0.30;;
82000;SDS011;71510;50.558;7.258;2023-12-29T12:13:45;1.77;;;0.28;;
82000;SDS011;71510;50.558;7.258;2023-12-29T12:18:59;0.53;;;0.30;;
82000;SDS011;71510;50.558;7.258;2023-12-29T12:21:27;0.20;;;0.20;;
82000;SDS011;71510;50.558;7.258;2023-12-29T12:23:55;1.20;;;0.30;;
82000;SDS011;71510;50.558;7.258;2023-12-29T12:26:22;2.90;;;0.82;;
82000;SDS011;71510;50.558;7.258;2023-12-29T12:28:52;1.92;;;1.02;;
82000;SDS011;71510;50.558;7.258;2023-12-29T12:31:19;0.62;;;0.30;;
82000;SDS011;71510;50.558;7.258;2023-12-29T12:33:58;0.62;;;0.30;;
82000;SDS011;71510;50.558;7.258;2023-12-29T12:36:22;2.42;;;0.60;;
82000;SDS011;71510;50.558;7.258;2023-12-29T12:38:52;1.32;;;0.85;;
82000;SDS011;71510;50.558;7.258;2023-12-29T12:41:25;2.90;;;0.50;;
82000;SDS011;71510;50.558;7.258;2023-12-29T12:44:03;1.05;;;0.30;;
82000;SDS011;71510;50.558;7.258;2023-12-29T12:46:29;1.20;;;0.37;;
82000;SDS011;71510;50.558;7.258;2023-12-29T12:48:58;0.62;;;0.28;;
82000;SDS011;71510;50.558;7.258;2023-12-29T12:51:26;0.95;;;0.30;;
82000;SDS011;71510;50.558;7.258;2023-12-29T12:53:53;2.45;;;0.30;;
82000;SDS011;71510;50.558;7.258;2023-12-29T12:56:21;1.00;;;0.30;;
82000;SDS011;71510;50.558;7.258;2023-12-29T12:58:48;0.68;;;0.20;;
82000;SDS011;71510;50.558;7.258;2023-12-29T13:01:15;0.60;;;0.20;;
82000;SDS011;71510;50.558;7.258;2023-12-29T13:03:43;1.02;;;0.30;;
82000;SDS011;71510;50.558;7.258;2023-12-29T13:06:11;0.80;;;0.30;;
82000;SDS011;71510;50.558;7.258;2023-12-29T13:08:39;0.20;;;0.20;;
82000;SDS011;71510;50.558;7.258;2023-12-29T13:11:06;0.47;;;0.20;;
82000;SDS011;71510;50.558;7.258;2023-12-29T13:13:40;0.25;;;0.25;;
82000;SDS011;71510;50.558;7.258;2023-12-29T13:16:05;1.57;;;0.55;;
82000;SDS011;71510;50.558;7.258;2023-12-29T13:18:32;1.17;;;0.62;;
82000;SDS011;71510;50.558;7.258;2023-12-29T13:21:01;0.93;;;0.50;;
82000;SDS011;71510;50.558;7.258;2023-12-29T13:23:29;1.50;;;0.30;;
82000;SDS011;71510;50.558;7.258;2023-12-29T13:26:01;0.88;;;0.30;;
82000;SDS011;71510;50.558;7.258;2023-12-29T13:28:28;0.40;;;0.40;;
82000;SDS011;71510;50.558;7.258;2023-12-29T13:30:56;1.87;;;0.80;;
82000;SDS011;71510;50.558;7.258;2023-12-29T13:33:45;5.03;;;0.60;;
82000;SDS011;71510;50.558;7.258;2023-12-29T13:36:12;0.78;;;0.30;;
82000;SDS011;71510;50.558;7.258;2023-12-29T13:38:41;0.40;;;0.20;;
82000;SDS011;71510;50.558;7.258;2023-12-29T13:41:10;1.22;;;0.85;;
82000;SDS011;71510;50.558;7.258;2023-12-29T13:43:39;1.77;;;1.20;;
82000;SDS011;71510;50.558;7.258;2023-12-29T13:46:09;0.90;;;0.60;;
82000;SDS011;71510;50.558;7.258;2023-12-29T13:48:37;1.62;;;0.65;;
82000;SDS011;71510;50.558;7.258;2023-12-29T13:51:05;2.45;;;0.72;;
82000;SDS011;71510;50.558;7.258;2023-12-29T13:53:34;0.60;;;0.42;;
82000;SDS011;71510;50.558;7.258;2023-12-29T13:56:08;1.47;;;0.75;;
82000;SDS011;71510;50.558;7.258;2023-12-29T13:58:35;26.77;;;1.80;;
82000;SDS011;71510;50.558;7.258;2023-12-29T14:01:04;36.93;;;3.08;;
82000;SDS011;71510;50.558;7.258;2023-12-29T14:03:32;1.50;;;0.30;;
82000;SDS011;71510;50.558;7.258;2023-12-29T14:06:03;0.65;;;0.30;;
82000;SDS011;71510;50.558;7.258;2023-12-29T14:08:33;3.12;;;0.50;;
82000;SDS011;71510;50.558;7.258;2023-12-29T14:11:01;0.60;;;0.30;;
82000;SDS011;71510;50.558;7.258;2023-12-29T14:13:29;0.20;;;0.20;;
82000;SDS011;71510;50.558;7.258;2023-12-29T14:15:57;54.38;;;3.55;;
82000;SDS011;71510;50.558;7.258;2023-12-29T14:18:35;0.57;;;0.25;;
82000;SDS011;71510;50.558;7.258;2023-12-29T14:20:59;1.25;;;0.25;;
82000;SDS011;71510;50.558;7.258;2023-12-29T14:23:27;1.17;;;0.40;;
82000;SDS011;71510;50.558;7.258;2023-12-29T14:26:01;1.80;;;0.40;;
82000;SDS011;71510;50.558;7.258;2023-12-29T14:28:23;0.70;;;0.50;;
82000;SDS011;71510;50.558;7.258;2023-12-29T14:30:50;0.28;;;0.20;;
82000;SDS011;71510;50.558;7.258;2023-12-29T14:33:19;0.23;;;0.20;;
82000;SDS011;71510;50.558;7.258;2023-12-29T14:35:46;0.50;;;0.30;;
82000;SDS011;71510;50.558;7.258;2023-12-29T14:38:14;2.22;;;0.40;;
82000;SDS011;71510;50.558;7.258;2023-12-29T14:40:44;1.10;;;0.40;;
82000;SDS011;71510;50.558;7.258;2023-12-29T14:43:11;0.70;;;0.40;;
82000;SDS011;71510;50.558;7.258;2023-12-29T14:45:39;1.55;;;0.40;;
82000;SDS011;71510;50.558;7.258;2023-12-29T14:48:07;1.77;;;0.37;;
82000;SDS011;71510;50.558;7.258;2023-12-29T14:50:34;5.00;;;0.30;;
82000;SDS011;71510;50.558;7.258;2023-12-29T14:53:01;1.95;;;0.40;;
82000;SDS011;71510;50.558;7.258;2023-12-29T14:55:29;1.07;;;0.35;;
82000;SDS011;71510;50.558;7.258;2023-12-29T14:57:56;0.53;;;0.30;;
82000;SDS011;71510;50.558;7.258;2023-12-29T15:00:23;0.60;;;0.30;;
82000;SDS011;71510;50.558;7.258;2023-12-29T15:02:51;0.45;;;0.20;;
82000;SDS011;71510;50.558;7.258;2023-12-29T15:05:18;1.57;;;0.42;;
82000;SDS011;71510;50.558;7.258;2023-12-29T15:07:45;0.53;;;0.30;;
82000;SDS011;71510;50.558;7.258;2023-12-29T15:10:13;1.07;;;0.40;;